Time,TemperatureF,DewpointF,PressureIn,WindDirection,WindDirectionDegrees,WindSpeedMPH,WindSpeedGustMPH,Humidity,HourlyPrecipIn,Conditions,Clouds,dailyrainin,SoftwareType,DateUTC
2013-06-15 00:00:00,61.9,51.7,30.10,ESE,113,0.0,0.0,69,0.00,,,0.00,WUHU216HW,2013-06-15 04:00:00,
2013-06-15 00:01:00,61.9,51.7,30.10,ESE,113,0.0,0.0,69,0.00,,,0.00,WUHU216HW,2013-06-15 04:01:00,
2013-06-15 00:02:00,61.9,51.7,30.10,ESE,113,0.0,0.0,69,0.00,,,0.00,WUHU216HW,2013-06-15 04:02:00,
2013-06-15 00:07:00,61.7,51.5,30.09,ESE,113,0.0,0.0,69,0.00,,,0.00,WUHU216HW,2013-06-15 04:07:00,
2013-06-15 00:12:00,61.6,51.4,30.09,ESE,113,0.0,0.0,69,0.00,,,0.00,WUHU216HW,2013-06-15 04:12:00,
2013-06-15 00:17:00,61.6,51.4,30.09,ESE,113,0.0,0.0,69,0.00,,,0.00,WUHU216HW,2013-06-15 04:17:00,
2013-06-15 00:22:00,61.4,51.2,30.09,ESE,113,0.0,0.0,69,0.00,,,0.00,WUHU216HW,2013-06-15 04:22:00,
2013-06-15 00:27:00,61.2,51.0,30.10,ESE,113,0.0,0.0,69,0.00,,,0.00,WUHU216HW,2013-06-15 04:27:00,
2013-06-15 00:32:00,61.0,51.3,30.09,ESE,113,0.0,0.0,70,0.00,,,0.00,WUHU216HW,2013-06-15 04:32:00,
2013-06-15 00:37:00,60.8,51.1,30.09,ESE,113,0.0,0.0,70,0.00,,,0.00,WUHU216HW,2013-06-15 04:37:00,
2013-06-15 00:42:00,60.7,51.3,30.09,ESE,113,0.0,0.0,71,0.00,,,0.00,WUHU216HW,2013-06-15 04:42:00,
2013-06-15 00:47:00,60.5,51.5,30.09,ESE,113,0.0,0.0,72,0.00,,,0.00,WUHU216HW,2013-06-15 04:47:00,
2013-06-15 00:52:00,60.5,51.5,30.09,ESE,113,0.0,0.0,72,0.00,,,0.00,WUHU216HW,2013-06-15 04:52:00,
2013-06-15 00:57:00,60.5,51.5,30.09,ESE,113,0.0,0.0,72,0.00,,,0.00,WUHU216HW,2013-06-15 04:57:00,
2013-06-15 01:02:00,60.3,51.3,30.08,ESE,113,0.0,0.0,72,0.00,,,0.00,WUHU216HW,2013-06-15 05:02:00,
2013-06-15 01:07:00,60.1,51.1,30.08,ESE,113,0.0,0.0,72,0.00,,,0.00,WUHU216HW,2013-06-15 05:07:00,
2013-06-15 01:12:00,60.1,51.5,30.08,ESE,113,0.0,0.0,73,0.00,,,0.00,WUHU216HW,2013-06-15 05:12:00,
2013-06-15 01:17:00,59.9,51.3,30.08,ESE,113,0.0,0.0,73,0.00,,,0.00,WUHU216HW,2013-06-15 05:17:00,
2013-06-15 01:22:00,59.8,51.1,30.08,ESE,113,0.0,0.0,73,0.00,,,0.00,WUHU216HW,2013-06-15 05:22:00,
2013-06-15 01:27:00,59.8,51.1,30.08,ESE,113,0.0,0.0,73,0.00,,,0.00,WUHU216HW,2013-06-15 05:27:00,
2013-06-15 01:32:00,59.8,51.1,30.08,ESE,113,0.0,0.0,73,0.00,,,0.00,WUHU216HW,2013-06-15 05:32:00,
2013-06-15 01:37:00,59.6,50.9,30.08,ESE,113,0.0,0.0,73,0.00,,,0.00,WUHU216HW,2013-06-15 05:37:00,
2013-06-15 01:42:00,59.4,50.8,30.08,ESE,113,0.0,0.0,73,0.00,,,0.00,WUHU216HW,2013-06-15 05:42:00,
2013-06-15 01:47:00,59.2,50.6,30.08,ESE,113,0.0,0.0,73,0.00,,,0.00,WUHU216HW,2013-06-15 05:47:00,
2013-06-15 01:52:00,59.0,50.8,30.08,ESE,113,0.0,0.0,74,0.00,,,0.00,WUHU216HW,2013-06-15 05:52:00,
2013-06-15 01:57:00,59.0,50.8,30.08,ESE,113,0.0,0.0,74,0.00,,,0.00,WUHU216HW,2013-06-15 05:57:00,
2013-06-15 02:02:00,58.7,50.4,30.08,ESE,113,0.0,0.0,74,0.00,,,0.00,WUHU216HW,2013-06-15 06:02:00,
2013-06-15 02:07:00,58.5,50.2,30.09,ESE,113,0.0,0.0,74,0.00,,,0.00,WUHU216HW,2013-06-15 06:07:00,
2013-06-15 02:12:00,58.5,50.6,30.09,ESE,113,0.0,0.0,75,0.00,,,0.00,WUHU216HW,2013-06-15 06:12:00,
2013-06-15 02:17:00,58.5,50.6,30.09,ESE,113,0.0,0.0,75,0.00,,,0.00,WUHU216HW,2013-06-15 06:17:00,
2013-06-15 02:22:00,58.3,50.4,30.09,ESE,113,0.0,0.0,75,0.00,,,0.00,WUHU216HW,2013-06-15 06:22:00,
2013-06-15 02:27:00,58.5,50.6,30.09,ESE,113,0.0,0.0,75,0.00,,,0.00,WUHU216HW,2013-06-15 06:27:00,
2013-06-15 02:32:00,58.3,50.4,30.09,ESE,113,0.0,0.0,75,0.00,,,0.00,WUHU216HW,2013-06-15 06:32:00,
2013-06-15 02:37:00,58.3,50.4,30.09,ESE,113,0.0,0.0,75,0.00,,,0.00,WUHU216HW,2013-06-15 06:37:00,
2013-06-15 02:42:00,58.1,50.2,30.09,ESE,113,0.0,0.0,75,0.00,,,0.00,WUHU216HW,2013-06-15 06:42:00,
2013-06-15 02:47:00,58.0,50.4,30.09,ESE,113,0.0,0.0,76,0.00,,,0.00,WUHU216HW,2013-06-15 06:47:00,
2013-06-15 02:52:00,57.6,50.0,30.09,ESE,113,0.0,0.0,76,0.00,,,0.00,WUHU216HW,2013-06-15 06:52:00,
2013-06-15 02:57:00,57.6,50.0,30.09,ESE,113,0.0,0.0,76,0.00,,,0.00,WUHU216HW,2013-06-15 06:57:00,
2013-06-15 03:02:00,57.8,50.2,30.09,ESE,113,0.0,0.0,76,0.00,,,0.00,WUHU216HW,2013-06-15 07:02:00,
2013-06-15 03:07:00,57.6,50.0,30.09,ESE,113,0.0,0.0,76,0.00,,,0.00,WUHU216HW,2013-06-15 07:07:00,
2013-06-15 03:12:00,57.4,49.9,30.09,ESE,113,0.0,0.0,76,0.00,,,0.00,WUHU216HW,2013-06-15 07:12:00,
2013-06-15 03:17:00,57.2,49.7,30.09,ESE,113,0.0,0.0,76,0.00,,,0.00,WUHU216HW,2013-06-15 07:17:00,
2013-06-15 03:22:00,57.2,50.0,30.09,ESE,113,0.0,0.0,77,0.00,,,0.00,WUHU216HW,2013-06-15 07:22:00,
2013-06-15 03:27:00,57.2,50.0,30.09,ESE,113,0.0,0.0,77,0.00,,,0.00,WUHU216HW,2013-06-15 07:27:00,
2013-06-15 03:32:00,57.2,50.0,30.09,ESE,113,0.0,0.0,77,0.00,,,0.00,WUHU216HW,2013-06-15 07:32:00,
2013-06-15 03:37:00,57.2,50.0,30.09,ESE,113,0.0,0.0,77,0.00,,,0.00,WUHU216HW,2013-06-15 07:37:00,
2013-06-15 03:42:00,57.1,49.9,30.09,ESE,113,0.0,0.0,77,0.00,,,0.00,WUHU216HW,2013-06-15 07:42:00,
2013-06-15 03:47:00,57.1,49.9,30.09,ESE,113,0.0,0.0,77,0.00,,,0.00,WUHU216HW,2013-06-15 07:47:00,
2013-06-15 03:52:00,56.9,49.7,30.09,ESE,113,0.0,0.0,77,0.00,,,0.00,WUHU216HW,2013-06-15 07:52:00,
2013-06-15 03:57:00,56.9,49.7,30.09,ESE,113,0.0,0.0,77,0.00,,,0.00,WUHU216HW,2013-06-15 07:57:00,
2013-06-15 04:02:00,56.7,49.5,30.10,ESE,113,0.0,0.0,77,0.00,,,0.00,WUHU216HW,2013-06-15 08:02:00,
2013-06-15 04:07:00,56.5,49.3,30.10,ESE,113,0.0,0.0,77,0.00,,,0.00,WUHU216HW,2013-06-15 08:07:00,
2013-06-15 04:12:00,56.5,49.3,30.10,ESE,113,0.0,0.0,77,0.00,,,0.00,WUHU216HW,2013-06-15 08:12:00,
2013-06-15 04:17:00,56.5,49.3,30.09,ESE,113,0.0,0.0,77,0.00,,,0.00,WUHU216HW,2013-06-15 08:17:00,
2013-06-15 04:22:00,56.5,49.3,30.09,ESE,113,0.0,0.0,77,0.00,,,0.00,WUHU216HW,2013-06-15 08:22:00,
2013-06-15 04:27:00,56.3,49.5,30.10,ESE,113,0.0,0.0,78,0.00,,,0.00,WUHU216HW,2013-06-15 08:27:00,
2013-06-15 04:32:00,56.2,49.3,30.09,ESE,113,0.0,0.0,78,0.00,,,0.00,WUHU216HW,2013-06-15 08:32:00,
2013-06-15 04:37:00,56.2,49.3,30.09,ESE,113,0.0,0.0,78,0.00,,,0.00,WUHU216HW,2013-06-15 08:37:00,
2013-06-15 04:42:00,56.2,49.3,30.09,ESE,113,0.0,0.0,78,0.00,,,0.00,WUHU216HW,2013-06-15 08:42:00,
2013-06-15 04:47:00,56.2,49.3,30.10,ESE,113,0.0,0.0,78,0.00,,,0.00,WUHU216HW,2013-06-15 08:47:00,
2013-06-15 04:52:00,56.2,49.3,30.10,ESE,113,0.0,0.0,78,0.00,,,0.00,WUHU216HW,2013-06-15 08:52:00,
2013-06-15 04:57:00,56.0,49.1,30.09,ESE,113,0.0,0.0,78,0.00,,,0.00,WUHU216HW,2013-06-15 08:57:00,
2013-06-15 05:02:00,56.0,49.1,30.09,ESE,113,0.0,0.0,78,0.00,,,0.00,WUHU216HW,2013-06-15 09:02:00,
2013-06-15 05:07:00,56.0,49.5,30.09,ESE,113,0.0,0.0,79,0.00,,,0.00,WUHU216HW,2013-06-15 09:07:00,
2013-06-15 05:12:00,56.0,49.5,30.09,ESE,113,0.0,0.0,79,0.00,,,0.00,WUHU216HW,2013-06-15 09:12:00,
2013-06-15 05:17:00,56.0,49.5,30.09,ESE,113,0.0,0.0,79,0.00,,,0.00,WUHU216HW,2013-06-15 09:17:00,
2013-06-15 05:22:00,56.0,49.5,30.09,ESE,113,0.0,0.0,79,0.00,,,0.00,WUHU216HW,2013-06-15 09:22:00,
2013-06-15 05:27:00,56.0,49.5,30.09,ESE,113,0.0,0.0,79,0.00,,,0.00,WUHU216HW,2013-06-15 09:27:00,
2013-06-15 05:32:00,55.8,49.3,30.09,ESE,113,0.0,0.0,79,0.00,,,0.00,WUHU216HW,2013-06-15 09:32:00,
2013-06-15 05:37:00,55.8,49.3,30.08,ESE,113,0.0,0.0,79,0.00,,,0.00,WUHU216HW,2013-06-15 09:37:00,
2013-06-15 05:42:00,55.8,49.3,30.09,ESE,113,0.0,0.0,79,0.00,,,0.00,WUHU216HW,2013-06-15 09:42:00,
2013-06-15 05:47:00,55.8,49.3,30.09,ESE,113,0.0,0.0,79,0.00,,,0.00,WUHU216HW,2013-06-15 09:47:00,
2013-06-15 05:52:00,55.6,49.1,30.09,ESE,113,0.0,0.0,79,0.00,,,0.00,WUHU216HW,2013-06-15 09:52:00,
2013-06-15 05:57:00,55.4,48.6,30.09,ESE,113,0.0,0.0,78,0.00,,,0.00,WUHU216HW,2013-06-15 09:57:00,
2013-06-15 06:02:00,55.4,48.6,30.10,ESE,113,0.0,0.0,78,0.00,,,0.00,WUHU216HW,2013-06-15 10:02:00,
2013-06-15 06:07:00,55.4,48.6,30.10,ESE,113,0.0,0.0,78,0.00,,,0.00,WUHU216HW,2013-06-15 10:07:00,
2013-06-15 06:12:00,55.3,48.5,30.09,ESE,113,0.0,0.0,78,0.00,,,0.00,WUHU216HW,2013-06-15 10:12:00,
2013-06-15 06:17:00,55.3,48.5,30.10,ESE,113,0.0,0.0,78,0.00,,,0.00,WUHU216HW,2013-06-15 10:17:00,
2013-06-15 06:22:00,55.3,48.5,30.10,ESE,113,0.0,0.0,78,0.00,,,0.00,WUHU216HW,2013-06-15 10:22:00,
2013-06-15 06:27:00,55.3,48.5,30.10,ESE,113,0.0,0.0,78,0.00,,,0.00,WUHU216HW,2013-06-15 10:27:00,
2013-06-15 06:32:00,55.3,48.8,30.10,ESE,113,0.0,0.0,79,0.00,,,0.00,WUHU216HW,2013-06-15 10:32:00,
2013-06-15 06:37:00,55.4,49.0,30.10,ESE,113,0.0,0.0,79,0.00,,,0.00,WUHU216HW,2013-06-15 10:37:00,
2013-06-15 06:42:00,55.4,49.0,30.11,ESE,113,0.0,0.0,79,0.00,,,0.00,WUHU216HW,2013-06-15 10:42:00,
2013-06-15 06:47:00,55.6,49.5,30.11,ESE,113,0.0,0.0,80,0.00,,,0.00,WUHU216HW,2013-06-15 10:47:00,
2013-06-15 06:52:00,55.6,49.9,30.11,ESE,113,0.0,0.0,81,0.00,,,0.00,WUHU216HW,2013-06-15 10:52:00,
2013-06-15 06:57:00,55.8,50.1,30.11,ESE,113,0.0,0.0,81,0.00,,,0.00,WUHU216HW,2013-06-15 10:57:00,
2013-06-15 07:02:00,55.8,50.1,30.11,ESE,113,0.0,0.0,81,0.00,,,0.00,WUHU216HW,2013-06-15 11:02:00,
2013-06-15 07:07:00,56.0,50.2,30.11,ESE,113,0.0,0.0,81,0.00,,,0.00,WUHU216HW,2013-06-15 11:07:00,
2013-06-15 07:12:00,56.2,50.4,30.11,ESE,113,0.0,0.0,81,0.00,,,0.00,WUHU216HW,2013-06-15 11:12:00,
2013-06-15 07:17:00,56.3,50.6,30.11,ESE,113,0.0,0.0,81,0.00,,,0.00,WUHU216HW,2013-06-15 11:17:00,
2013-06-15 07:22:00,56.3,50.6,30.11,ESE,113,0.0,0.0,81,0.00,,,0.00,WUHU216HW,2013-06-15 11:22:00,
2013-06-15 07:27:00,56.5,50.8,30.12,ESE,113,0.0,0.0,81,0.00,,,0.00,WUHU216HW,2013-06-15 11:27:00,
2013-06-15 07:32:00,56.7,51.2,30.12,ESE,113,0.0,0.0,82,0.00,,,0.00,WUHU216HW,2013-06-15 11:32:00,
2013-06-15 07:37:00,56.9,51.4,30.13,ESE,113,0.0,0.0,82,0.00,,,0.00,WUHU216HW,2013-06-15 11:37:00,
2013-06-15 07:42:00,57.1,51.6,30.13,ESE,113,0.0,0.0,82,0.00,,,0.00,WUHU216HW,2013-06-15 11:42:00,
2013-06-15 07:47:00,57.2,51.8,30.13,ESE,113,0.0,0.0,82,0.00,,,0.00,WUHU216HW,2013-06-15 11:47:00,
2013-06-15 07:52:00,57.2,51.8,30.13,ESE,113,0.0,0.0,82,0.00,,,0.00,WUHU216HW,2013-06-15 11:52:00,
2013-06-15 07:57:00,57.6,52.1,30.13,ESE,113,0.0,0.0,82,0.00,,,0.00,WUHU216HW,2013-06-15 11:57:00,
2013-06-15 08:02:00,57.8,52.7,30.13,ESE,113,0.0,0.0,83,0.00,,,0.00,WUHU216HW,2013-06-15 12:02:00,
2013-06-15 08:07:00,58.0,52.8,30.13,ESE,113,0.0,0.0,83,0.00,,,0.00,WUHU216HW,2013-06-15 12:07:00,
2013-06-15 08:12:00,58.3,53.2,30.13,ESE,113,0.0,0.0,83,0.00,,,0.00,WUHU216HW,2013-06-15 12:12:00,
2013-06-15 08:17:00,58.5,53.4,30.13,ESE,113,0.0,0.0,83,0.00,,,0.00,WUHU216HW,2013-06-15 12:17:00,
2013-06-15 08:22:00,58.7,53.6,30.13,ESE,113,0.0,0.0,83,0.00,,,0.00,WUHU216HW,2013-06-15 12:22:00,
2013-06-15 08:27:00,58.9,53.7,30.13,ESE,113,0.0,0.0,83,0.00,,,0.00,WUHU216HW,2013-06-15 12:27:00,
2013-06-15 08:32:00,59.4,54.3,30.13,ESE,113,0.0,0.0,83,0.00,,,0.00,WUHU216HW,2013-06-15 12:32:00,
2013-06-15 08:37:00,59.9,54.8,30.13,SSE,158,0.7,0.7,83,0.00,,,0.00,WUHU216HW,2013-06-15 12:37:00,
2013-06-15 08:42:00,60.5,55.4,30.13,SSE,158,0.0,0.7,83,0.00,,,0.00,WUHU216HW,2013-06-15 12:42:00,
2013-06-15 08:47:00,61.0,55.9,30.12,SSE,158,0.0,0.2,83,0.00,,,0.00,WUHU216HW,2013-06-15 12:47:00,
2013-06-15 08:52:00,61.7,56.5,30.11,SSE,158,0.0,0.4,83,0.00,,,0.00,WUHU216HW,2013-06-15 12:52:00,
2013-06-15 08:57:00,62.3,56.7,30.11,SW,225,0.0,1.1,82,0.00,,,0.00,WUHU216HW,2013-06-15 12:57:00,
2013-06-15 09:02:00,62.6,57.1,30.11,SSW,203,0.0,1.1,82,0.00,,,0.00,WUHU216HW,2013-06-15 13:02:00,
2013-06-15 09:07:00,62.8,56.9,30.11,SW,225,0.9,0.9,81,0.00,,,0.00,WUHU216HW,2013-06-15 13:07:00,
2013-06-15 09:12:00,63.4,57.4,30.11,SW,225,1.1,1.1,81,0.00,,,0.00,WUHU216HW,2013-06-15 13:12:00,
2013-06-15 09:17:00,64.1,58.2,30.11,SSW,203,0.4,1.1,81,0.00,,,0.00,WUHU216HW,2013-06-15 13:17:00,
2013-06-15 09:22:00,64.8,58.9,30.11,West,270,0.2,0.7,81,0.00,,,0.00,WUHU216HW,2013-06-15 13:22:00,
2013-06-15 09:27:00,65.5,59.2,30.11,SW,225,0.7,0.7,80,0.00,,,0.00,WUHU216HW,2013-06-15 13:27:00,
2013-06-15 09:32:00,66.1,59.8,30.11,SSW,203,1.3,1.8,80,0.00,,,0.00,WUHU216HW,2013-06-15 13:32:00,
2013-06-15 09:37:00,66.6,59.1,30.11,WSW,248,0.4,1.8,77,0.00,,,0.00,WUHU216HW,2013-06-15 13:37:00,
2013-06-15 09:42:00,67.1,59.7,30.11,SSE,158,0.7,1.3,77,0.00,,,0.00,WUHU216HW,2013-06-15 13:42:00,
2013-06-15 09:47:00,67.9,60.0,30.11,SSW,203,0.7,1.8,76,0.00,,,0.00,WUHU216HW,2013-06-15 13:47:00,
2013-06-15 09:52:00,68.4,60.6,30.11,SSW,203,0.9,1.8,76,0.00,,,0.00,WUHU216HW,2013-06-15 13:52:00,
2013-06-15 09:57:00,68.8,60.1,30.11,SW,225,0.4,1.1,74,0.00,,,0.00,WUHU216HW,2013-06-15 13:57:00,
2013-06-15 10:02:00,69.1,60.5,30.11,WSW,248,0.7,1.1,74,0.00,,,0.00,WUHU216HW,2013-06-15 14:02:00,
2013-06-15 10:07:00,69.5,60.4,30.11,SSW,203,0.4,1.8,73,0.00,,,0.00,WUHU216HW,2013-06-15 14:07:00,
2013-06-15 10:12:00,70.2,60.7,30.11,SW,225,0.9,1.8,72,0.00,,,0.00,WUHU216HW,2013-06-15 14:12:00,
2013-06-15 10:17:00,70.2,60.3,30.10,SW,225,1.1,1.1,71,0.00,,,0.00,WUHU216HW,2013-06-15 14:17:00,
2013-06-15 10:22:00,70.6,60.7,30.10,WSW,248,1.1,1.1,71,0.00,,,0.00,WUHU216HW,2013-06-15 14:22:00,
2013-06-15 10:27:00,70.9,60.7,30.10,SW,225,0.4,1.1,70,0.00,,,0.00,WUHU216HW,2013-06-15 14:27:00,
2013-06-15 10:32:00,71.3,60.6,30.09,NW,315,1.1,1.3,69,0.00,,,0.00,WUHU216HW,2013-06-15 14:32:00,
2013-06-15 10:37:00,71.6,61.4,30.09,SSW,203,0.4,1.3,70,0.00,,,0.00,WUHU216HW,2013-06-15 14:37:00,
2013-06-15 10:42:00,72.0,61.3,30.09,WNW,293,1.8,1.8,69,0.00,,,0.00,WUHU216HW,2013-06-15 14:42:00,
2013-06-15 10:47:00,72.5,61.8,30.09,SW,225,0.7,1.8,69,0.00,,,0.00,WUHU216HW,2013-06-15 14:47:00,
2013-06-15 10:52:00,72.9,61.3,30.09,WSW,248,0.9,1.8,67,0.00,,,0.00,WUHU216HW,2013-06-15 14:52:00,
2013-06-15 10:57:00,73.1,61.5,30.09,WSW,248,0.4,1.1,67,0.00,,,0.00,WUHU216HW,2013-06-15 14:57:00,
2013-06-15 11:02:00,73.3,61.2,30.09,SW,225,0.9,1.3,66,0.00,,,0.00,WUHU216HW,2013-06-15 15:02:00,
2013-06-15 11:07:00,73.4,61.4,30.09,NNW,338,1.6,1.6,66,0.00,,,0.00,WUHU216HW,2013-06-15 15:07:00,
2013-06-15 11:12:00,73.8,61.8,30.09,North,0,0.0,1.6,66,0.00,,,0.00,WUHU216HW,2013-06-15 15:12:00,
2013-06-15 11:17:00,74.2,61.7,30.09,West,270,0.9,1.6,65,0.00,,,0.00,WUHU216HW,2013-06-15 15:17:00,
2013-06-15 11:22:00,74.3,61.8,30.08,SW,225,0.4,0.9,65,0.00,,,0.00,WUHU216HW,2013-06-15 15:22:00,
2013-06-15 11:27:00,74.5,61.6,30.08,SW,225,0.4,3.4,64,0.00,,,0.00,WUHU216HW,2013-06-15 15:27:00,
2013-06-15 11:32:00,74.9,61.5,30.08,SSW,203,1.1,3.4,63,0.00,,,0.00,WUHU216HW,2013-06-15 15:32:00,
2013-06-15 11:37:00,74.9,60.1,30.08,SSW,203,1.1,2.2,60,0.00,,,0.00,WUHU216HW,2013-06-15 15:37:00,
2013-06-15 11:42:00,74.7,60.9,30.08,SSW,203,0.9,1.1,62,0.00,,,0.00,WUHU216HW,2013-06-15 15:42:00,
2013-06-15 11:47:00,74.9,60.1,30.08,NW,315,1.6,1.8,60,0.00,,,0.00,WUHU216HW,2013-06-15 15:47:00,
2013-06-15 11:52:00,74.7,60.4,30.07,NW,315,0.4,1.8,61,0.00,,,0.00,WUHU216HW,2013-06-15 15:52:00,
2013-06-15 11:57:00,74.9,61.0,30.07,North,0,0.0,0.7,62,0.00,,,0.00,WUHU216HW,2013-06-15 15:57:00,
2013-06-15 12:02:00,75.2,60.9,30.07,North,0,0.0,0.4,61,0.00,,,0.00,WUHU216HW,2013-06-15 16:02:00,
2013-06-15 12:07:00,75.4,61.1,30.07,North,0,0.0,0.0,61,0.00,,,0.00,WUHU216HW,2013-06-15 16:07:00,
2013-06-15 12:12:00,75.6,60.9,30.07,North,0,0.0,0.0,60,0.00,,,0.00,WUHU216HW,2013-06-15 16:12:00,
2013-06-15 12:17:00,75.8,61.4,30.07,North,0,0.0,0.0,61,0.00,,,0.00,WUHU216HW,2013-06-15 16:17:00,
2013-06-15 12:22:00,76.0,61.1,30.06,North,0,0.0,0.0,60,0.00,,,0.00,WUHU216HW,2013-06-15 16:22:00,
2013-06-15 12:27:00,76.3,60.9,30.06,North,0,0.0,0.0,59,0.00,,,0.00,WUHU216HW,2013-06-15 16:27:00,
2013-06-15 12:32:00,76.5,60.6,30.06,North,0,0.0,0.0,58,0.00,,,0.00,WUHU216HW,2013-06-15 16:32:00,
2013-06-15 12:37:00,76.9,60.9,30.06,North,0,0.0,0.0,58,0.00,,,0.00,WUHU216HW,2013-06-15 16:37:00,
2013-06-15 12:41:00,77.4,61.9,30.06,North,0,0.0,0.0,59,0.00,,,0.00,WUHU216HW,2013-06-15 16:41:00,
2013-06-15 12:47:00,77.8,61.3,30.06,North,0,0.0,0.0,57,0.00,,,0.00,WUHU216HW,2013-06-15 16:47:00,
2013-06-15 12:51:00,78.1,61.7,30.06,North,0,0.0,0.0,57,0.00,,,0.00,WUHU216HW,2013-06-15 16:51:00,
2013-06-15 12:56:00,78.1,61.1,30.06,North,0,0.0,0.0,56,0.00,,,0.00,WUHU216HW,2013-06-15 16:56:00,
2013-06-15 13:01:00,77.9,60.9,30.06,North,0,0.0,0.0,56,0.00,,,0.00,WUHU216HW,2013-06-15 17:01:00,
2013-06-15 13:06:00,77.8,60.3,30.06,North,0,0.0,0.0,55,0.00,,,0.00,WUHU216HW,2013-06-15 17:06:00,
2013-06-15 13:11:00,77.8,60.3,30.06,North,0,0.0,0.0,55,0.00,,,0.00,WUHU216HW,2013-06-15 17:11:00,
2013-06-15 13:16:00,77.8,60.3,30.07,North,0,0.0,0.0,55,0.00,,,0.00,WUHU216HW,2013-06-15 17:16:00,
2013-06-15 13:21:00,78.5,61.5,30.07,North,0,0.0,0.0,56,0.00,,,0.00,WUHU216HW,2013-06-15 17:21:00,
2013-06-15 13:26:00,79.2,61.1,30.07,North,0,0.0,0.0,54,0.00,,,0.00,WUHU216HW,2013-06-15 17:26:00,
2013-06-15 13:31:00,79.2,60.6,30.06,North,0,0.0,0.0,53,0.00,,,0.00,WUHU216HW,2013-06-15 17:31:00,
2013-06-15 13:36:00,79.2,61.1,30.06,North,0,0.0,0.0,54,0.00,,,0.00,WUHU216HW,2013-06-15 17:36:00,
2013-06-15 13:41:00,79.2,60.0,30.06,North,0,0.0,0.0,52,0.00,,,0.00,WUHU216HW,2013-06-15 17:41:00,
2013-06-15 13:46:00,79.2,60.0,30.06,North,0,0.0,0.0,52,0.00,,,0.00,WUHU216HW,2013-06-15 17:46:00,
2013-06-15 13:51:00,78.8,60.2,30.06,North,0,0.0,0.0,53,0.00,,,0.00,WUHU216HW,2013-06-15 17:51:00,
2013-06-15 13:56:00,78.5,59.4,30.06,North,0,0.0,0.0,52,0.00,,,0.00,WUHU216HW,2013-06-15 17:56:00,
2013-06-15 14:01:00,78.1,59.6,30.06,North,0,0.0,0.0,53,0.00,,,0.00,WUHU216HW,2013-06-15 18:01:00,
2013-06-15 14:06:00,78.3,59.2,30.06,North,0,0.0,0.0,52,0.00,,,0.00,WUHU216HW,2013-06-15 18:06:00,
2013-06-15 14:11:00,78.3,60.3,30.06,North,0,0.0,0.0,54,0.00,,,0.00,WUHU216HW,2013-06-15 18:11:00,
2013-06-15 14:16:00,78.3,60.3,30.06,North,0,0.0,0.0,54,0.00,,,0.00,WUHU216HW,2013-06-15 18:16:00,
2013-06-15 14:21:00,78.3,60.3,30.06,North,0,0.0,0.0,54,0.00,,,0.00,WUHU216HW,2013-06-15 18:21:00,
2013-06-15 14:26:00,78.1,60.1,30.06,North,0,0.0,0.0,54,0.00,,,0.00,WUHU216HW,2013-06-15 18:26:00,
2013-06-15 14:31:00,78.1,60.6,30.06,North,0,0.0,0.0,55,0.00,,,0.00,WUHU216HW,2013-06-15 18:31:00,
2013-06-15 14:36:00,78.1,60.6,30.06,North,0,0.0,0.0,55,0.00,,,0.00,WUHU216HW,2013-06-15 18:36:00,
2013-06-15 14:41:00,78.5,60.9,30.06,North,0,0.0,0.0,55,0.00,,,0.00,WUHU216HW,2013-06-15 18:41:00,
2013-06-15 14:46:00,78.8,60.8,30.07,North,0,0.0,0.0,54,0.00,,,0.00,WUHU216HW,2013-06-15 18:46:00,
2013-06-15 14:51:00,79.0,60.4,30.07,North,0,0.0,0.0,53,0.00,,,0.00,WUHU216HW,2013-06-15 18:51:00,
2013-06-15 14:56:00,78.8,60.2,30.06,North,0,0.0,0.0,53,0.00,,,0.00,WUHU216HW,2013-06-15 18:56:00,
2013-06-15 15:01:00,78.8,60.2,30.06,North,0,0.0,0.0,53,0.00,,,0.00,WUHU216HW,2013-06-15 19:01:00,
2013-06-15 15:06:00,78.5,60.0,30.06,North,0,0.0,0.0,53,0.00,,,0.00,WUHU216HW,2013-06-15 19:06:00,
2013-06-15 15:11:00,78.5,60.0,30.07,North,0,0.0,0.0,53,0.00,,,0.00,WUHU216HW,2013-06-15 19:11:00,
2013-06-15 15:16:00,78.7,61.1,30.07,North,0,0.0,0.0,55,0.00,,,0.00,WUHU216HW,2013-06-15 19:16:00,
2013-06-15 15:21:00,78.8,60.8,30.07,North,0,0.0,0.0,54,0.00,,,0.00,WUHU216HW,2013-06-15 19:21:00,
2013-06-15 15:26:00,79.0,61.5,30.07,North,0,0.0,0.0,55,0.00,,,0.00,WUHU216HW,2013-06-15 19:26:00,
2013-06-15 15:31:00,79.0,60.4,30.07,North,0,0.0,0.0,53,0.00,,,0.00,WUHU216HW,2013-06-15 19:31:00,
2013-06-15 15:36:00,78.8,60.2,30.07,North,0,0.0,0.0,53,0.00,,,0.00,WUHU216HW,2013-06-15 19:36:00,
2013-06-15 15:41:00,78.3,59.8,30.07,North,0,0.0,0.0,53,0.00,,,0.00,WUHU216HW,2013-06-15 19:41:00,
2013-06-15 15:46:00,78.1,60.6,30.07,North,0,0.0,0.0,55,0.00,,,0.00,WUHU216HW,2013-06-15 19:46:00,
2013-06-15 15:51:00,78.1,60.6,30.07,West,270,0.4,0.4,55,0.00,,,0.00,WUHU216HW,2013-06-15 19:51:00,
2013-06-15 15:56:00,78.1,60.6,30.07,NNW,338,1.1,1.1,55,0.00,,,0.00,WUHU216HW,2013-06-15 19:56:00,
2013-06-15 16:01:00,77.9,60.5,30.07,SSW,203,1.1,1.1,55,0.00,,,0.00,WUHU216HW,2013-06-15 20:01:00,
2013-06-15 16:06:00,77.8,60.3,30.06,WNW,293,1.1,1.1,55,0.00,,,0.00,WUHU216HW,2013-06-15 20:06:00,
2013-06-15 16:11:00,77.9,60.9,30.07,North,0,0.0,1.1,56,0.00,,,0.00,WUHU216HW,2013-06-15 20:11:00,
2013-06-15 16:16:00,78.1,61.1,30.06,NNW,338,0.9,2.7,56,0.00,,,0.00,WUHU216HW,2013-06-15 20:16:00,
2013-06-15 16:21:00,78.1,60.6,30.06,SW,225,1.1,2.7,55,0.00,,,0.00,WUHU216HW,2013-06-15 20:21:00,
2013-06-15 16:26:00,77.9,60.9,30.06,SW,225,1.1,1.3,56,0.00,,,0.00,WUHU216HW,2013-06-15 20:26:00,
2013-06-15 16:31:00,77.6,60.6,30.06,SW,225,1.8,1.8,56,0.00,,,0.00,WUHU216HW,2013-06-15 20:31:00,
2013-06-15 16:36:00,77.4,60.4,30.06,WNW,293,0.7,1.8,56,0.00,,,0.00,WUHU216HW,2013-06-15 20:36:00,
2013-06-15 16:41:00,77.2,60.8,30.06,SW,225,1.3,1.8,57,0.00,,,0.00,WUHU216HW,2013-06-15 20:41:00,
2013-06-15 16:46:00,77.2,60.8,30.06,SSW,203,1.1,1.3,57,0.00,,,0.00,WUHU216HW,2013-06-15 20:46:00,
2013-06-15 16:51:00,76.9,60.4,30.06,WSW,248,0.4,1.1,57,0.00,,,0.00,WUHU216HW,2013-06-15 20:51:00,
2013-06-15 16:56:00,76.5,60.1,30.06,SW,225,2.2,2.2,57,0.00,,,0.00,WUHU216HW,2013-06-15 20:56:00,
2013-06-15 17:01:00,76.3,60.5,30.05,SSW,203,0.9,2.2,58,0.00,,,0.00,WUHU216HW,2013-06-15 21:01:00,
2013-06-15 17:06:00,76.0,61.1,30.06,SSW,203,0.4,1.8,60,0.00,,,0.00,WUHU216HW,2013-06-15 21:06:00,
2013-06-15 17:11:00,75.8,61.4,30.05,SSW,203,1.1,1.6,61,0.00,,,0.00,WUHU216HW,2013-06-15 21:11:00,
2013-06-15 17:16:00,75.2,61.4,30.05,North,0,0.0,1.6,62,0.00,,,0.00,WUHU216HW,2013-06-15 21:16:00,
2013-06-15 17:21:00,75.1,61.6,30.05,North,0,0.0,1.1,63,0.00,,,0.00,WUHU216HW,2013-06-15 21:21:00,
2013-06-15 17:26:00,74.7,61.7,30.05,North,0,0.0,0.0,64,0.00,,,0.00,WUHU216HW,2013-06-15 21:26:00,
2013-06-15 17:31:00,74.3,61.8,30.06,North,0,0.0,0.0,65,0.00,,,0.00,WUHU216HW,2013-06-15 21:31:00,
2013-06-15 17:36:00,74.0,61.9,30.06,North,0,0.0,0.0,66,0.00,,,0.00,WUHU216HW,2013-06-15 21:36:00,
2013-06-15 17:41:00,73.6,61.6,30.06,North,0,0.0,0.0,66,0.01,,,0.01,WUHU216HW,2013-06-15 21:41:00,
2013-06-15 17:46:00,73.1,61.5,30.06,North,0,0.0,0.0,67,0.01,,,0.01,WUHU216HW,2013-06-15 21:46:00,
2013-06-15 17:51:00,72.7,61.6,30.05,North,0,0.0,0.0,68,0.01,,,0.01,WUHU216HW,2013-06-15 21:51:00,
2013-06-15 17:56:00,72.4,62.1,30.05,North,0,0.0,0.0,70,0.01,,,0.01,WUHU216HW,2013-06-15 21:56:00,
2013-06-15 18:01:00,72.2,61.9,30.05,North,0,0.0,0.0,70,0.01,,,0.01,WUHU216HW,2013-06-15 22:01:00,
2013-06-15 18:06:00,72.0,62.1,30.05,North,0,0.0,0.0,71,0.01,,,0.01,WUHU216HW,2013-06-15 22:06:00,
2013-06-15 18:11:00,71.8,61.6,30.05,North,0,0.0,0.0,70,0.01,,,0.01,WUHU216HW,2013-06-15 22:11:00,
2013-06-15 18:16:00,71.6,61.4,30.05,North,0,0.0,0.0,70,0.01,,,0.01,WUHU216HW,2013-06-15 22:16:00,
2013-06-15 18:21:00,71.6,60.9,30.05,North,0,0.0,0.0,69,0.01,,,0.01,WUHU216HW,2013-06-15 22:21:00,
2013-06-15 18:26:00,71.5,60.8,30.04,North,0,0.0,0.0,69,0.01,,,0.01,WUHU216HW,2013-06-15 22:26:00,
2013-06-15 18:31:00,71.5,60.8,30.04,SW,225,0.4,0.4,69,0.01,,,0.01,WUHU216HW,2013-06-15 22:31:00,
2013-06-15 18:36:00,71.5,60.8,30.04,NW,315,1.3,1.3,69,0.01,,,0.01,WUHU216HW,2013-06-15 22:36:00,
2013-06-15 18:41:00,71.3,61.0,30.04,West,270,0.7,1.3,70,0.00,,,0.01,WUHU216HW,2013-06-15 22:41:00,
2013-06-15 18:46:00,71.3,61.0,30.04,NW,315,0.4,1.8,70,0.00,,,0.01,WUHU216HW,2013-06-15 22:46:00,
2013-06-15 18:51:00,71.3,61.0,30.03,NW,315,0.4,1.8,70,0.00,,,0.01,WUHU216HW,2013-06-15 22:51:00,
2013-06-15 18:56:00,71.1,60.8,30.03,SSW,203,0.7,1.1,70,0.00,,,0.01,WUHU216HW,2013-06-15 22:56:00,
2013-06-15 19:01:00,70.9,60.7,30.03,SW,225,1.1,1.1,70,0.00,,,0.01,WUHU216HW,2013-06-15 23:01:00,
2013-06-15 19:06:00,70.9,60.7,30.03,WNW,293,2.2,2.2,70,0.00,,,0.01,WUHU216HW,2013-06-15 23:06:00,
2013-06-15 19:11:00,70.9,60.7,30.03,SW,225,0.4,2.2,70,0.00,,,0.01,WUHU216HW,2013-06-15 23:11:00,
2013-06-15 19:16:00,70.6,60.3,30.02,SW,225,0.9,1.1,70,0.00,,,0.01,WUHU216HW,2013-06-15 23:16:00,
2013-06-15 19:21:00,70.4,60.1,30.02,WSW,248,0.0,1.1,70,0.00,,,0.01,WUHU216HW,2013-06-15 23:21:00,
2013-06-15 19:26:00,70.4,59.7,30.02,West,270,0.0,0.7,69,0.00,,,0.01,WUHU216HW,2013-06-15 23:26:00,
2013-06-15 19:31:00,70.4,60.1,30.01,NW,315,0.9,0.9,70,0.00,,,0.01,WUHU216HW,2013-06-15 23:31:00,
2013-06-15 19:36:00,70.2,59.9,30.01,NW,315,0.7,2.0,70,0.00,,,0.01,WUHU216HW,2013-06-15 23:36:00,
2013-06-15 19:41:00,70.2,59.9,30.01,WNW,293,2.5,2.5,70,0.00,,,0.01,WUHU216HW,2013-06-15 23:41:00,
2013-06-15 19:46:00,70.0,59.8,30.01,SSW,203,0.9,2.5,70,0.00,,,0.01,WUHU216HW,2013-06-15 23:46:00,
2013-06-15 19:51:00,70.0,59.8,30.01,WNW,293,0.0,0.9,70,0.00,,,0.01,WUHU216HW,2013-06-15 23:51:00,
2013-06-15 19:56:00,70.0,59.8,30.01,SW,225,0.0,0.7,70,0.00,,,0.01,WUHU216HW,2013-06-15 23:56:00,
2013-06-15 20:01:00,70.2,59.9,30.01,NW,315,0.4,0.7,70,0.00,,,0.01,WUHU216HW,2013-06-16 00:01:00,
2013-06-15 20:06:00,70.2,59.9,30.01,North,0,0.2,0.4,70,0.00,,,0.01,WUHU216HW,2013-06-16 00:06:00,
2013-06-15 20:11:00,70.2,59.9,30.01,NNW,338,0.0,0.9,70,0.00,,,0.01,WUHU216HW,2013-06-16 00:11:00,
2013-06-15 20:16:00,70.2,59.9,30.01,West,270,0.4,0.9,70,0.00,,,0.01,WUHU216HW,2013-06-16 00:16:00,
2013-06-15 20:21:00,70.0,59.8,30.01,NW,315,0.0,0.9,70,0.00,,,0.01,WUHU216HW,2013-06-16 00:21:00,
2013-06-15 20:26:00,69.8,59.6,30.00,NNW,338,0.2,0.9,70,0.00,,,0.01,WUHU216HW,2013-06-16 00:26:00,
2013-06-15 20:31:00,69.8,59.6,30.00,NE,45,0.0,0.9,70,0.00,,,0.01,WUHU216HW,2013-06-16 00:31:00,
2013-06-15 20:36:00,69.5,59.2,30.00,NW,315,0.4,0.9,70,0.00,,,0.01,WUHU216HW,2013-06-16 00:36:00,
2013-06-15 20:41:00,69.3,59.1,30.01,NW,315,0.0,0.4,70,0.00,,,0.01,WUHU216HW,2013-06-16 00:41:00,
2013-06-15 20:46:00,69.1,59.0,30.00,NW,315,0.0,0.0,70,0.00,,,0.01,WUHU216HW,2013-06-16 00:46:00,
2013-06-15 20:51:00,69.1,59.3,29.99,NNE,23,0.7,0.7,71,0.00,,,0.01,WUHU216HW,2013-06-16 00:51:00,
2013-06-15 20:56:00,68.9,59.1,30.00,NNE,23,0.0,0.7,71,0.00,,,0.01,WUHU216HW,2013-06-16 00:56:00,
2013-06-15 21:01:00,68.8,59.4,30.00,NNE,23,0.0,0.7,72,0.00,,,0.01,WUHU216HW,2013-06-16 01:01:00,
2013-06-15 21:06:00,68.8,59.4,30.00,NNE,23,0.0,0.0,72,0.00,,,0.01,WUHU216HW,2013-06-16 01:06:00,
2013-06-15 21:11:00,68.6,59.2,30.00,NNE,23,0.0,0.0,72,0.00,,,0.01,WUHU216HW,2013-06-16 01:11:00,
2013-06-15 21:16:00,68.4,59.0,30.00,NNE,23,0.0,0.0,72,0.00,,,0.01,WUHU216HW,2013-06-16 01:16:00,
2013-06-15 21:21:00,68.4,59.0,30.00,NNE,23,0.0,0.0,72,0.00,,,0.01,WUHU216HW,2013-06-16 01:21:00,
2013-06-15 21:26:00,68.4,59.0,29.99,NNE,23,0.0,0.0,72,0.00,,,0.01,WUHU216HW,2013-06-16 01:26:00,
2013-06-15 21:31:00,68.2,58.9,29.99,NNE,23,0.0,0.0,72,0.00,,,0.01,WUHU216HW,2013-06-16 01:31:00,
2013-06-15 21:36:00,68.0,59.1,29.99,NNE,23,0.0,0.0,73,0.00,,,0.01,WUHU216HW,2013-06-16 01:36:00,
2013-06-15 21:41:00,67.9,59.0,30.00,NNE,23,0.0,0.0,73,0.00,,,0.01,WUHU216HW,2013-06-16 01:41:00,
2013-06-15 21:46:00,67.7,58.8,30.00,NNE,23,0.0,0.0,73,0.00,,,0.01,WUHU216HW,2013-06-16 01:46:00,
2013-06-15 21:51:00,67.5,58.6,30.00,NNE,23,0.0,0.0,73,0.00,,,0.01,WUHU216HW,2013-06-16 01:51:00,
2013-06-15 21:56:00,67.3,58.8,29.99,NNE,23,0.0,0.0,74,0.00,,,0.01,WUHU216HW,2013-06-16 01:56:00,
2013-06-15 22:01:00,67.1,58.6,30.00,NNE,23,0.0,0.0,74,0.00,,,0.01,WUHU216HW,2013-06-16 02:01:00,
2013-06-15 22:06:00,67.0,58.4,30.00,NNE,23,0.0,0.0,74,0.00,,,0.01,WUHU216HW,2013-06-16 02:06:00,
2013-06-15 22:07:00,67.0,58.4,29.99,NNE,23,0.0,0.0,74,0.00,,,0.01,WUHU216HW,2013-06-16 02:07:00,
2013-06-15 22:09:00,67.0,58.4,29.99,NNE,23,0.0,0.0,74,0.00,,,0.01,WUHU216HW,2013-06-16 02:09:00,
2013-06-15 22:10:00,67.0,58.4,29.99,NNE,23,0.0,0.0,74,0.00,,,0.01,WUHU216HW,2013-06-16 02:10:00,
2013-06-15 22:11:00,67.0,58.4,30.00,NNE,23,0.0,0.0,74,0.00,,,0.01,WUHU216HW,2013-06-16 02:11:00,
2013-06-15 22:21:00,67.0,58.4,30.00,NNE,23,0.0,0.0,74,0.00,,,0.01,WUHU216HW,2013-06-16 02:21:00,
2013-06-15 22:26:00,66.2,57.7,30.00,NNE,23,0.0,0.0,74,0.00,,,0.01,WUHU216HW,2013-06-16 02:26:00,
2013-06-15 22:31:00,66.1,57.9,30.00,NNE,23,0.0,0.0,75,0.00,,,0.01,WUHU216HW,2013-06-16 02:31:00,
2013-06-15 22:36:00,65.9,57.7,30.00,NNE,23,0.0,0.0,75,0.00,,,0.01,WUHU216HW,2013-06-16 02:36:00,
2013-06-15 22:41:00,65.9,57.7,30.00,NNE,23,0.0,0.0,75,0.00,,,0.01,WUHU216HW,2013-06-16 02:41:00,
2013-06-15 22:46:00,65.7,57.5,29.99,NNE,23,0.0,0.0,75,0.00,,,0.01,WUHU216HW,2013-06-16 02:46:00,
2013-06-15 22:51:00,65.5,57.3,29.99,NNE,23,0.0,0.0,75,0.00,,,0.01,WUHU216HW,2013-06-16 02:51:00,
2013-06-15 22:56:00,65.5,57.8,29.99,NNE,23,0.0,0.0,76,0.00,,,0.01,WUHU216HW,2013-06-16 02:56:00,
2013-06-15 23:01:00,65.3,57.6,29.99,NNE,23,0.0,0.0,76,0.00,,,0.01,WUHU216HW,2013-06-16 03:01:00,
2013-06-15 23:06:00,65.2,57.4,29.98,NNE,23,0.0,0.0,76,0.00,,,0.01,WUHU216HW,2013-06-16 03:06:00,
2013-06-15 23:11:00,65.2,57.4,29.98,NNE,23,0.0,0.0,76,0.00,,,0.01,WUHU216HW,2013-06-16 03:11:00,
2013-06-15 23:16:00,65.0,57.3,29.98,NNE,23,0.0,0.0,76,0.00,,,0.01,WUHU216HW,2013-06-16 03:16:00,
2013-06-15 23:21:00,65.0,57.6,29.97,NNE,23,0.0,0.0,77,0.00,,,0.01,WUHU216HW,2013-06-16 03:21:00,
2013-06-15 23:26:00,64.8,57.4,29.97,NNE,23,0.0,0.0,77,0.00,,,0.01,WUHU216HW,2013-06-16 03:26:00,
2013-06-15 23:31:00,64.8,57.4,29.98,NNE,23,0.0,0.0,77,0.00,,,0.01,WUHU216HW,2013-06-16 03:31:00,
2013-06-15 23:36:00,64.6,57.3,29.98,NNE,23,0.0,0.0,77,0.00,,,0.01,WUHU216HW,2013-06-16 03:36:00,
2013-06-15 23:41:00,64.6,57.3,29.97,NNE,23,0.0,0.0,77,0.00,,,0.01,WUHU216HW,2013-06-16 03:41:00,
2013-06-15 23:46:00,64.4,57.1,29.98,NNE,23,0.0,0.0,77,0.00,,,0.01,WUHU216HW,2013-06-16 03:46:00,
2013-06-15 23:51:00,64.3,56.9,29.98,NNE,23,0.0,0.0,77,0.00,,,0.01,WUHU216HW,2013-06-16 03:51:00,
2013-06-15 23:56:00,64.3,56.9,29.97,NNE,23,0.0,0.0,77,0.00,,,0.01,WUHU216HW,2013-06-16 03:56:00,